LOG99RB EGPH-EGNS
Flight info
| Callsign | LOG99RB |
|---|---|
| Flight time | N/A |
| Altitude | 22000 |
| Route | GOSAM P600 GIRVA DCT IBTES |
| Aircraft | E145/M-SABDFGRW/S |
Departure
| Time | 2026-04-20 20:55 |
|---|---|
| Airport | Edinburgh Airport (EGPH) |
Arrival
| Time | N/A |
|---|---|
| Airport | Isle of Man Airport (EGNS) |
| Time | Latitude | Longitude | Altitude | Speed | Heading |
|---|---|---|---|---|---|
| 2026-04-20 20:43 | 55.94964 | -3.36286 | 103 ft | 0 kts | 148° |
| 2026-04-20 20:49 | 55.94982 | -3.36305 | 103 ft | 3 kts | 149° |
| 2026-04-20 20:49 | 55.95004 | -3.36329 | 103 ft | 0 kts | 149° |
| 2026-04-20 20:51 | 55.95003 | -3.36329 | 103 ft | 0 kts | 152° |
| 2026-04-20 20:52 | 55.94996 | -3.36350 | 103 ft | 7 kts | 267° |
| 2026-04-20 20:52 | 55.95044 | -3.36388 | 103 ft | 11 kts | 0° |
| 2026-04-20 20:52 | 55.95054 | -3.36517 | 103 ft | 14 kts | 239° |
| 2026-04-20 20:52 | 55.94985 | -3.36724 | 103 ft | 24 kts | 239° |
| 2026-04-20 20:53 | 55.94894 | -3.36989 | 103 ft | 24 kts | 239° |
| 2026-04-20 20:53 | 55.94803 | -3.37257 | 103 ft | 24 kts | 239° |
| 2026-04-20 20:53 | 55.94714 | -3.37521 | 103 ft | 24 kts | 239° |
| 2026-04-20 20:53 | 55.94637 | -3.37751 | 104 ft | 18 kts | 239° |
| 2026-04-20 20:54 | 55.94591 | -3.37895 | 104 ft | 8 kts | 261° |
| 2026-04-20 20:54 | 55.94629 | -3.37987 | 105 ft | 11 kts | 329° |
| 2026-04-20 20:54 | 55.94700 | -3.38063 | 105 ft | 9 kts | 328° |
| 2026-04-20 20:54 | 55.94730 | -3.38043 | 105 ft | 2 kts | 57° |
| 2026-04-20 20:55 | 55.94814 | -3.37795 | 104 ft | 62 kts | 59° |
| 2026-04-20 20:55 | 55.95166 | -3.36759 | 125 ft | 124 kts | 60° |
| 2026-04-20 20:55 | 55.95627 | -3.35427 | 640 ft | 124 kts | 59° |
| 2026-04-20 20:55 | 55.96308 | -3.34456 | 1187 ft | 137 kts | 19° |
| 2026-04-20 20:56 | 55.97290 | -3.34573 | 1816 ft | 146 kts | 4° |
| 2026-04-20 20:56 | 55.98177 | -3.33786 | 2209 ft | 152 kts | 59° |
| 2026-04-20 20:56 | 55.98599 | -3.32090 | 2853 ft | 156 kts | 73° |
| 2026-04-20 20:56 | 55.98905 | -3.30236 | 3566 ft | 157 kts | 65° |
| 2026-04-20 20:57 | 55.99813 | -3.29101 | 4131 ft | 176 kts | 14° |
| 2026-04-20 20:57 | 56.01089 | -3.29727 | 4418 ft | 213 kts | 333° |
| 2026-04-20 20:57 | 56.02146 | -3.31635 | 5121 ft | 216 kts | 308° |
| 2026-04-20 20:57 | 56.02537 | -3.34152 | 5912 ft | 216 kts | 269° |
| 2026-04-20 20:58 | 56.02072 | -3.36832 | 6050 ft | 241 kts | 243° |
| 2026-04-20 20:58 | 56.01304 | -3.39685 | 6153 ft | 262 kts | 243° |
| 2026-04-20 20:58 | 56.00504 | -3.42667 | 6354 ft | 270 kts | 243° |
| 2026-04-20 20:58 | 55.99668 | -3.45776 | 6348 ft | 284 kts | 243° |
| 2026-04-20 20:59 | 55.98818 | -3.48938 | 6965 ft | 283 kts | 243° |
| 2026-04-20 20:59 | 55.97965 | -3.52108 | 7616 ft | 284 kts | 243° |
| 2026-04-20 20:59 | 55.97115 | -3.55266 | 8261 ft | 284 kts | 243° |
| 2026-04-20 20:59 | 55.96252 | -3.58471 | 8874 ft | 285 kts | 243° |
| 2026-04-20 21:00 | 55.95391 | -3.61665 | 9396 ft | 289 kts | 243° |
| 2026-04-20 21:00 | 55.94509 | -3.64931 | 9770 ft | 298 kts | 243° |
| 2026-04-20 21:00 | 55.93583 | -3.68360 | 10103 ft | 308 kts | 243° |
| 2026-04-20 21:00 | 55.92643 | -3.71836 | 10423 ft | 317 kts | 243° |
| 2026-04-20 21:01 | 55.91672 | -3.75428 | 10734 ft | 324 kts | 243° |
| 2026-04-20 21:01 | 55.90676 | -3.79107 | 11057 ft | 331 kts | 243° |
| 2026-04-20 21:01 | 55.89670 | -3.82821 | 11374 ft | 337 kts | 243° |
| 2026-04-20 21:01 | 55.88644 | -3.86607 | 11775 ft | 340 kts | 243° |
| 2026-04-20 21:02 | 55.87611 | -3.90416 | 12336 ft | 345 kts | 243° |
| 2026-04-20 21:02 | 55.86562 | -3.94280 | 13023 ft | 346 kts | 243° |
| 2026-04-20 21:02 | 55.85512 | -3.98147 | 13681 ft | 347 kts | 243° |
| 2026-04-20 21:02 | 55.84472 | -4.01974 | 14130 ft | 341 kts | 243° |
| 2026-04-20 21:03 | 55.83418 | -4.05849 | 14155 ft | 348 kts | 243° |
| 2026-04-20 21:03 | 55.82377 | -4.09677 | 14465 ft | 345 kts | 243° |
| 2026-04-20 21:03 | 55.81335 | -4.13502 | 14755 ft | 345 kts | 243° |
| 2026-04-20 21:03 | 55.80268 | -4.17339 | 15114 ft | 345 kts | 240° |
| 2026-04-20 21:04 | 55.78679 | -4.20526 | 15416 ft | 340 kts | 214° |
| 2026-04-20 21:04 | 55.76687 | -4.22822 | 15802 ft | 339 kts | 211° |
| 2026-04-20 21:04 | 55.74686 | -4.25147 | 16168 ft | 343 kts | 211° |
| 2026-04-20 21:04 | 55.72705 | -4.27498 | 16524 ft | 345 kts | 212° |
| 2026-04-20 21:05 | 55.70728 | -4.29862 | 16910 ft | 347 kts | 212° |
| 2026-04-20 21:05 | 55.68682 | -4.32312 | 17292 ft | 349 kts | 212° |
| 2026-04-20 21:05 | 55.66658 | -4.34738 | 17655 ft | 350 kts | 212° |
| 2026-04-20 21:05 | 55.64631 | -4.37164 | 18038 ft | 351 kts | 212° |
| 2026-04-20 21:06 | 55.62612 | -4.39579 | 18408 ft | 352 kts | 212° |
| 2026-04-20 21:06 | 55.60570 | -4.42018 | 18773 ft | 352 kts | 212° |
| 2026-04-20 21:06 | 55.58543 | -4.44436 | 19140 ft | 353 kts | 212° |
| 2026-04-20 21:06 | 55.56503 | -4.46866 | 19501 ft | 356 kts | 212° |
| 2026-04-20 21:07 | 55.54402 | -4.49366 | 19889 ft | 358 kts | 212° |
| 2026-04-20 21:07 | 55.52337 | -4.51821 | 20267 ft | 359 kts | 212° |
| 2026-04-20 21:07 | 55.50249 | -4.54299 | 20647 ft | 360 kts | 212° |
| 2026-04-20 21:07 | 55.48155 | -4.56781 | 21028 ft | 361 kts | 212° |
| 2026-04-20 21:08 | 55.46066 | -4.59255 | 21409 ft | 361 kts | 212° |
| 2026-04-20 21:08 | 55.43963 | -4.61740 | 21793 ft | 362 kts | 212° |
| 2026-04-20 21:08 | 55.41851 | -4.64235 | 22179 ft | 361 kts | 212° |
| 2026-04-20 21:08 | 55.39751 | -4.66710 | 22390 ft | 366 kts | 212° |
| 2026-04-20 21:09 | 55.37625 | -4.69213 | 22383 ft | 364 kts | 212° |
| 2026-04-20 21:09 | 55.35491 | -4.71724 | 22385 ft | 361 kts | 212° |
| 2026-04-20 21:09 | 55.33414 | -4.74164 | 22383 ft | 360 kts | 212° |
| 2026-04-20 21:09 | 55.31295 | -4.76649 | 22381 ft | 362 kts | 212° |
| 2026-04-20 21:10 | 55.29180 | -4.79126 | 22366 ft | 361 kts | 212° |
| 2026-04-20 21:10 | 55.27089 | -4.81573 | 22383 ft | 359 kts | 212° |
| 2026-04-20 21:10 | 55.25029 | -4.83978 | 22378 ft | 359 kts | 212° |
| 2026-04-20 21:10 | 55.22917 | -4.86441 | 22374 ft | 359 kts | 213° |
| 2026-04-20 21:11 | 55.20857 | -4.88842 | 22369 ft | 359 kts | 213° |
| 2026-04-20 21:11 | 55.18765 | -4.91278 | 22363 ft | 360 kts | 213° |
| 2026-04-20 21:11 | 55.16676 | -4.93706 | 22359 ft | 360 kts | 213° |
| 2026-04-20 21:11 | 55.14514 | -4.95890 | 22329 ft | 360 kts | 201° |
| 2026-04-20 21:12 | 55.12048 | -4.96610 | 22334 ft | 358 kts | 179° |
| 2026-04-20 21:12 | 55.09561 | -4.96711 | 22324 ft | 358 kts | 189° |